Time;durP1;ratioP1;P1;durP2;ratioP2;P2;SDS_P1;SDS_P2;PMS_P1;PMS_P2;Temp;Humidity;BMP_temperature;BMP_pressure;BME280_temperature;BME280_humidity;BME280_pressure;Samples;Min_cycle;Max_cycle;Signal;HPM_P1;HPM_P2
2022/02/25 00:01:11;;;;;;;11.80;6.00;;;;;;;6.69;60.06;99457.73;130158;1270;108750;-74
2022/02/25 00:04:16;;;;;;;11.20;5.80;;;;;;;6.71;60.03;99459.51;130084;1270;107703;-75
2022/02/25 00:07:22;;;;;;;12.50;5.90;;;;;;;6.73;59.99;99452.66;130216;1271;108546;-74
2022/02/25 00:10:27;;;;;;;11.30;5.80;;;;;;;6.75;60.06;99451.05;130231;1271;107926;-74
2022/02/25 00:13:33;;;;;;;10.20;5.40;;;;;;;6.77;59.91;99451.89;130237;1271;108702;-77
2022/02/25 00:16:38;;;;;;;9.50;5.00;;;;;;;6.79;59.94;99456.29;130190;1270;108797;-77
2022/02/25 00:19:44;;;;;;;8.30;4.80;;;;;;;6.80;60.02;99456.84;130612;1270;108715;-78
2022/02/25 00:22:51;;;;;;;10.30;5.40;;;;;;;6.82;59.97;99453.52;130710;1271;108783;-78
2022/02/25 00:25:56;;;;;;;11.90;5.50;;;;;;;6.83;60.12;99448.42;130370;1269;108831;-77
2022/02/25 00:29:02;;;;;;;8.00;4.90;;;;;;;6.85;59.83;99450.56;130173;1271;109111;-77
2022/02/25 00:32:09;;;;;;;9.40;5.10;;;;;;;6.86;60.15;99448.84;130164;1271;109002;-75
2022/02/25 00:35:15;;;;;;;9.30;5.00;;;;;;;6.88;59.89;99446.58;130194;1270;108735;-76
2022/02/25 00:38:20;;;;;;;10.50;5.10;;;;;;;6.89;60.07;99435.13;130180;1270;107713;-75
2022/02/25 00:41:26;;;;;;;8.10;4.80;;;;;;;6.91;60.08;99435.31;130205;1271;108917;-77
2022/02/25 00:44:31;;;;;;;10.40;5.10;;;;;;;6.92;59.91;99429.58;130146;1271;107291;-77
2022/02/25 00:47:37;;;;;;;7.90;5.00;;;;;;;6.93;60.05;99429.86;130201;1271;109030;-77
2022/02/25 00:50:43;;;;;;;7.60;4.60;;;;;;;6.94;59.94;99430.80;130156;1271;108756;-77
2022/02/25 00:53:48;;;;;;;10.00;4.80;;;;;;;6.94;60.03;99430.27;130142;1271;108830;-77
2022/02/25 00:56:54;;;;;;;8.50;4.70;;;;;;;6.94;59.92;99433.41;130151;1271;108764;-77
2022/02/25 00:59:59;;;;;;;9.50;4.90;;;;;;;6.94;60.16;99436.93;130191;1267;179608;-76
2022/02/25 01:03:05;;;;;;;11.40;4.90;;;;;;;6.93;60.19;99433.30;130485;1267;108800;-78
2022/02/25 01:06:12;;;;;;;9.90;5.10;;;;;;;6.93;59.99;99435.66;130496;1267;108786;-78
2022/02/25 01:09:17;;;;;;;10.40;5.00;;;;;;;6.93;59.99;99432.84;130431;1268;107088;-79
2022/02/25 01:12:23;;;;;;;8.00;4.70;;;;;;;6.92;60.12;99426.96;130627;1268;108739;-79
2022/02/25 01:15:29;;;;;;;10.20;4.70;;;;;;;6.91;59.86;99427.58;130587;1268;108827;-77
2022/02/25 01:18:34;;;;;;;9.00;4.80;;;;;;;6.91;60.03;99426.69;130515;1268;108940;-77
2022/02/25 01:21:39;;;;;;;9.30;4.50;;;;;;;6.90;60.09;99420.95;130513;1266;108827;-76
2022/02/25 01:24:45;;;;;;;10.10;5.30;;;;;;;6.88;60.03;99414.79;130504;1268;108662;-76
2022/02/25 01:27:51;;;;;;;10.60;4.90;;;;;;;6.84;60.10;99414.55;130523;1268;108649;-75
2022/02/25 01:30:56;;;;;;;7.70;4.60;;;;;;;6.81;60.09;99405.52;130426;1268;108725;-77
2022/02/25 01:34:02;;;;;;;8.60;4.90;;;;;;;6.77;59.86;99403.61;130448;1268;108774;-76
2022/02/25 01:37:08;;;;;;;8.00;4.60;;;;;;;6.73;60.13;99401.88;130434;1268;108954;-75
2022/02/25 01:40:14;;;;;;;7.90;5.30;;;;;;;6.69;59.97;99395.50;130521;1268;108903;-77
2022/02/25 01:43:19;;;;;;;10.00;4.90;;;;;;;6.66;59.89;99396.34;130378;1268;108833;-79
2022/02/25 01:46:25;;;;;;;7.80;4.40;;;;;;;6.63;60.18;99397.02;130394;1268;108918;-78
2022/02/25 01:49:31;;;;;;;8.60;4.60;;;;;;;6.60;60.06;99394.84;130473;1268;109104;-77
2022/02/25 01:52:37;;;;;;;11.00;4.90;;;;;;;6.57;60.10;99392.09;130477;1268;108128;-78
2022/02/25 01:55:43;;;;;;;8.00;4.40;;;;;;;6.54;60.02;99392.21;130846;1268;109685;-78
2022/02/25 01:58:49;;;;;;;12.70;5.10;;;;;;;6.51;60.31;99395.59;131815;1268;107691;-77
2022/02/25 02:01:54;;;;;;;10.00;5.10;;;;;;;6.46;60.18;99399.72;130414;1268;109251;-74
2022/02/25 02:05:00;;;;;;;8.10;4.30;;;;;;;6.43;60.38;99401.09;130371;1268;108700;-74
2022/02/25 02:08:06;;;;;;;7.60;4.30;;;;;;;6.40;60.33;99401.54;130252;1268;108916;-74
2022/02/25 02:11:11;;;;;;;9.50;4.80;;;;;;;6.37;60.64;99405.76;130425;1267;107370;-77
2022/02/25 02:14:18;;;;;;;8.60;4.30;;;;;;;6.34;60.49;99401.59;130411;1268;108729;-75
2022/02/25 02:17:24;;;;;;;8.50;4.20;;;;;;;6.30;60.64;99399.13;130513;1268;108578;-77
2022/02/25 02:20:30;;;;;;;7.40;4.70;;;;;;;6.25;60.60;99397.26;130369;1268;108193;-78
2022/02/25 02:23:35;;;;;;;7.20;4.40;;;;;;;6.23;60.50;99402.21;130385;1268;108716;-78
2022/02/25 02:26:41;;;;;;;8.90;4.40;;;;;;;6.20;60.46;99403.60;130366;1268;107955;-78
2022/02/25 02:29:47;;;;;;;7.50;3.80;;;;;;;6.16;60.43;99402.25;130369;1266;108926;-78
2022/02/25 02:32:52;;;;;;;7.90;3.80;;;;;;;6.13;60.60;99399.64;130363;1268;107081;-77
2022/02/25 02:35:58;;;;;;;6.50;4.10;;;;;;;6.13;60.52;99404.80;130459;1268;108797;-76
2022/02/25 02:39:03;;;;;;;7.00;3.70;;;;;;;6.14;60.58;99403.52;130358;1268;108749;-76
2022/02/25 02:42:09;;;;;;;8.00;4.30;;;;;;;6.14;60.42;99401.73;130349;1268;108936;-76
2022/02/25 02:45:16;;;;;;;6.70;4.10;;;;;;;6.16;60.72;99407.91;130420;1267;108807;-76
2022/02/25 02:48:21;;;;;;;7.80;4.20;;;;;;;6.18;60.64;99407.45;130400;1268;108544;-76
2022/02/25 02:51:27;;;;;;;8.70;4.10;;;;;;;6.22;60.53;99411.52;130522;1267;107775;-76
2022/02/25 02:54:32;;;;;;;6.70;3.60;;;;;;;6.27;60.77;99419.19;130391;1268;108816;-76
2022/02/25 02:57:39;;;;;;;7.10;4.30;;;;;;;6.32;60.72;99420.70;130366;1268;107752;-77
2022/02/25 03:00:47;;;;;;;6.90;3.90;;;;;;;6.37;60.74;99431.56;130479;1268;108859;-75
2022/02/25 03:03:53;;;;;;;6.70;4.00;;;;;;;6.42;60.65;99432.40;130457;1268;109020;-76
2022/02/25 03:06:58;;;;;;;9.20;3.90;;;;;;;6.47;60.50;99441.51;130343;1268;108745;-78
2022/02/25 03:10:05;;;;;;;7.40;4.10;;;;;;;6.51;60.63;99454.17;130416;1268;108637;-77
2022/02/25 03:13:12;;;;;;;7.10;4.00;;;;;;;6.56;60.54;99448.58;130397;1267;107342;-78
2022/02/25 03:16:19;;;;;;;10.60;5.00;;;;;;;6.61;60.46;99441.20;130491;1267;108872;-77
2022/02/25 03:19:24;;;;;;;8.30;4.30;;;;;;;6.65;60.74;99450.04;130337;1268;107781;-79
2022/02/25 03:22:30;;;;;;;9.70;4.90;;;;;;;6.68;61.22;99448.52;130371;1268;108937;-77
2022/02/25 03:25:35;;;;;;;8.50;4.10;;;;;;;6.72;61.09;99446.95;130412;1268;108956;-78
2022/02/25 03:28:41;;;;;;;8.40;4.10;;;;;;;6.73;61.17;99436.87;130342;1268;108976;-77
2022/02/25 03:31:46;;;;;;;8.10;4.80;;;;;;;6.74;60.95;99439.41;130423;1268;108822;-77
2022/02/25 03:34:53;;;;;;;8.70;4.60;;;;;;;6.77;60.87;99447.77;130354;1268;108977;-78
2022/02/25 03:37:59;;;;;;;8.40;4.90;;;;;;;6.80;60.97;99450.16;130356;1266;108899;-78
2022/02/25 03:41:04;;;;;;;7.80;4.30;;;;;;;6.83;61.09;99453.91;130468;1268;108800;-78
2022/02/25 03:44:10;;;;;;;8.10;4.40;;;;;;;6.86;61.08;99455.43;130417;1268;108713;-78
2022/02/25 03:47:15;;;;;;;10.10;4.70;;;;;;;6.90;61.12;99460.69;130438;1268;108763;-79
2022/02/25 03:50:21;;;;;;;8.00;4.20;;;;;;;6.94;61.13;99469.83;130513;1268;108521;-77
2022/02/25 03:53:28;;;;;;;8.60;4.60;;;;;;;6.98;61.22;99472.67;130404;1268;108783;-80
2022/02/25 03:56:33;;;;;;;7.70;4.20;;;;;;;7.01;61.25;99475.66;130368;1268;106957;-80
2022/02/25 03:59:39;;;;;;;9.00;4.90;;;;;;;7.06;61.17;99470.67;130573;1268;108998;-81
2022/02/25 04:02:45;;;;;;;8.40;4.10;;;;;;;7.09;61.28;99469.60;130353;1268;108770;-81
2022/02/25 04:05:50;;;;;;;10.50;4.30;;;;;;;7.12;61.21;99487.39;130356;1268;108950;-81
2022/02/25 04:08:56;;;;;;;8.40;3.90;;;;;;;7.15;61.28;99493.42;130548;1268;108980;-81
2022/02/25 04:12:02;;;;;;;6.20;3.60;;;;;;;7.19;61.23;99500.35;130570;1267;108767;-78
2022/02/25 04:15:10;;;;;;;7.10;3.70;;;;;;;7.22;61.13;99502.91;130326;1267;108804;-81
2022/02/25 04:18:16;;;;;;;7.40;3.70;;;;;;;7.22;61.38;99509.02;130445;1266;108881;-78
2022/02/25 04:21:21;;;;;;;5.10;2.90;;;;;;;7.20;61.50;99524.05;130369;1267;108891;-79
2022/02/25 04:24:27;;;;;;;4.80;3.20;;;;;;;7.17;61.29;99528.31;130372;1268;107852;-79
2022/02/25 04:27:32;;;;;;;4.00;2.00;;;;;;;7.11;61.68;99550.98;130371;1268;108709;-79
2022/02/25 04:30:38;;;;;;;4.20;1.30;;;;;;;7.03;61.83;99564.83;130349;1268;108925;-79
2022/02/25 04:33:43;;;;;;;3.60;1.20;;;;;;;6.92;61.53;99583.91;130387;1268;108809;-79
2022/02/25 04:36:49;;;;;;;2.00;1.00;;;;;;;6.81;61.85;99595.39;130452;1268;107839;-78
2022/02/25 04:39:54;;;;;;;1.00;0.70;;;;;;;6.72;61.93;99596.10;130273;1268;108612;-78
2022/02/25 04:43:00;;;;;;;3.60;1.60;;;;;;;6.60;61.67;99607.77;130342;1268;108862;-78
2022/02/25 04:46:05;;;;;;;1.40;0.80;;;;;;;6.52;61.58;99621.41;130380;1268;108795;-78
2022/02/25 04:49:11;;;;;;;1.40;0.80;;;;;;;6.34;62.03;99635.09;130386;1268;108732;-79
2022/02/25 04:52:17;;;;;;;4.00;2.10;;;;;;;6.21;62.16;99641.23;130379;1266;108817;-79
2022/02/25 04:55:23;;;;;;;1.50;0.80;;;;;;;6.04;62.65;99656.41;130366;1268;108716;-78
2022/02/25 04:58:28;;;;;;;4.40;2.50;;;;;;;5.87;63.19;99666.48;130378;1268;108609;-77
2022/02/25 05:01:34;;;;;;;2.00;1.10;;;;;;;5.78;63.40;99677.21;130451;1268;108792;-78
2022/02/25 05:04:39;;;;;;;1.60;0.80;;;;;;;5.73;63.81;99683.45;130389;1267;108758;-78
2022/02/25 05:07:45;;;;;;;2.60;1.70;;;;;;;5.67;64.33;99697.08;130388;1268;108653;-78
2022/02/25 05:10:50;;;;;;;1.50;1.00;;;;;;;5.68;64.08;99699.45;130413;1268;108858;-77
2022/02/25 05:13:56;;;;;;;10.80;7.10;;;;;;;5.68;64.63;99711.46;130358;1268;109118;-77
2022/02/25 05:20:26;;;;;;;2.70;1.80;;;;;;;5.62;64.12;99718.68;130380;1268;107595;-78
2022/02/25 05:23:32;;;;;;;5.50;2.40;;;;;;;5.62;64.05;99723.21;130388;1266;108573;-79
2022/02/25 05:26:37;;;;;;;3.90;1.80;;;;;;;5.62;64.11;99726.56;130377;1268;108666;-79
2022/02/25 05:29:42;;;;;;;186.10;65.30;;;;;;;5.60;63.94;99733.81;130395;1268;109144;-78
2022/02/25 05:32:49;;;;;;;16.70;6.60;;;;;;;5.58;63.90;99739.70;130443;1267;108581;-78
2022/02/25 05:35:55;;;;;;;51.80;14.40;;;;;;;5.52;63.93;99743.84;130557;1267;108845;-77
2022/02/25 05:39:00;;;;;;;95.60;26.30;;;;;;;5.51;64.28;99746.23;130425;1267;108931;-77
2022/02/25 05:42:06;;;;;;;31.10;9.70;;;;;;;5.52;63.88;99753.06;130364;1267;108759;-79
2022/02/25 05:45:13;;;;;;;12.90;5.70;;;;;;;5.51;64.21;99758.73;130449;1267;108851;-78
2022/02/25 05:48:18;;;;;;;2.90;1.70;;;;;;;5.48;64.06;99765.33;130417;1267;108867;-78
2022/02/25 05:51:23;;;;;;;3.20;1.60;;;;;;;5.49;63.97;99779.08;130501;1267;109091;-76
2022/02/25 05:54:29;;;;;;;2.40;1.60;;;;;;;5.50;63.88;99780.04;130386;1267;108607;-79
2022/02/25 05:57:34;;;;;;;55.00;21.80;;;;;;;5.48;64.16;99785.10;130511;1267;108937;-78
2022/02/25 06:00:40;;;;;;;22.10;11.40;;;;;;;5.47;64.04;99789.83;130393;1270;108672;-78
2022/02/25 06:03:47;;;;;;;56.10;22.60;;;;;;;5.47;64.15;99800.55;130307;1270;108770;-76
2022/02/25 06:06:53;;;;;;;62.00;27.50;;;;;;;5.45;64.15;99801.27;130208;1270;108636;-79
2022/02/25 06:09:58;;;;;;;19.00;8.40;;;;;;;5.43;64.19;99813.26;130312;1270;108782;-78
2022/02/25 06:13:04;;;;;;;34.00;15.60;;;;;;;5.41;64.13;99823.30;130299;1268;108685;-78
2022/02/25 06:16:09;;;;;;;54.60;22.30;;;;;;;5.39;64.26;99825.05;130296;1268;107299;-77
2022/02/25 06:19:14;;;;;;;26.00;8.80;;;;;;;5.37;64.51;99829.16;130244;1270;108777;-77
2022/02/25 06:22:20;;;;;;;67.80;24.10;;;;;;;5.25;64.53;99837.50;130229;1268;108963;-79
2022/02/25 06:25:25;;;;;;;31.50;14.00;;;;;;;5.23;64.62;99841.03;130362;1268;108254;-78
2022/02/25 06:28:31;;;;;;;5.30;3.30;;;;;;;5.24;64.63;99850.69;130250;1268;108092;-74
2022/02/25 06:31:37;;;;;;;28.90;12.30;;;;;;;5.19;64.74;99855.14;130282;1268;108904;-73
2022/02/25 06:34:43;;;;;;;7.90;4.40;;;;;;;5.21;64.63;99858.52;130271;1268;108725;-74
2022/02/25 06:37:48;;;;;;;4.90;2.80;;;;;;;5.23;64.72;99873.17;130256;1268;108724;-75
2022/02/25 06:40:54;;;;;;;97.00;31.40;;;;;;;5.18;64.53;99882.05;130517;1268;108695;-74
2022/02/25 06:44:00;;;;;;;13.10;4.20;;;;;;;5.11;64.67;99894.23;130339;1271;108687;-74
2022/02/25 06:47:06;;;;;;;13.90;4.50;;;;;;;5.03;64.76;99904.92;130210;1270;108018;-73
2022/02/25 06:50:13;;;;;;;15.00;6.30;;;;;;;4.96;64.68;99913.66;130197;1271;108709;-75
2022/02/25 06:53:18;;;;;;;8.10;3.50;;;;;;;4.87;64.87;99924.89;130295;1270;108921;-75
2022/02/25 06:56:24;;;;;;;6.70;3.00;;;;;;;4.79;65.17;99925.10;130227;1270;108783;-75
2022/02/25 06:59:30;;;;;;;15.60;6.30;;;;;;;4.73;64.87;99921.52;130267;1267;108816;-74
2022/02/25 07:02:36;;;;;;;99.40;32.40;;;;;;;4.72;64.55;99936.14;130225;1267;109044;-75
2022/02/25 07:05:41;;;;;;;60.20;22.00;;;;;;;4.72;64.29;99940.78;130330;1267;108941;-76
2022/02/25 07:08:47;;;;;;;27.60;14.00;;;;;;;4.66;64.12;99950.21;130351;1267;108805;-77
2022/02/25 07:11:52;;;;;;;7.60;3.30;;;;;;;4.61;64.14;99961.52;130409;1267;108944;-76
2022/02/25 07:14:58;;;;;;;5.70;2.50;;;;;;;4.55;64.13;99969.76;130447;1267;108706;-77
2022/02/25 07:18:04;;;;;;;96.50;35.10;;;;;;;4.51;64.12;99983.84;130517;1268;108800;-77
2022/02/25 07:21:11;;;;;;;16.40;7.00;;;;;;;4.50;64.09;99995.68;130476;1267;109173;-77
2022/02/25 07:24:17;;;;;;;8.80;3.50;;;;;;;4.53;64.11;100002.69;130499;1266;107573;-77
2022/02/25 07:27:22;;;;;;;22.00;7.90;;;;;;;4.60;63.96;100005.11;130442;1268;108811;-76
2022/02/25 07:30:28;;;;;;;14.90;5.10;;;;;;;4.74;63.77;100008.64;130645;1268;108708;-77
2022/02/25 07:33:34;;;;;;;85.30;30.00;;;;;;;4.89;63.70;100012.17;130459;1268;108889;-77
2022/02/25 07:36:39;;;;;;;5.30;2.60;;;;;;;5.07;63.52;100020.61;130494;1268;108900;-77
2022/02/25 07:39:45;;;;;;;3.90;1.90;;;;;;;5.18;63.41;100020.67;130544;1267;108508;-75
2022/02/25 07:42:51;;;;;;;4.30;2.00;;;;;;;5.20;63.02;100030.36;130501;1268;108821;-75
2022/02/25 07:45:56;;;;;;;3.50;1.70;;;;;;;5.23;63.06;100037.87;130582;1267;108703;-75
2022/02/25 07:49:02;;;;;;;2.60;1.80;;;;;;;5.31;63.34;100037.77;130593;1267;109200;-75
2022/02/25 07:52:07;;;;;;;53.60;28.40;;;;;;;5.39;63.06;100047.70;130584;1268;107112;-75
2022/02/25 07:55:14;;;;;;;10.20;6.90;;;;;;;5.43;63.09;100057.76;130628;1268;108735;-75
2022/02/25 07:58:19;;;;;;;86.50;43.00;;;;;;;5.43;62.56;100056.67;130559;1268;108707;-76
2022/02/25 08:01:25;;;;;;;56.80;20.10;;;;;;;5.34;62.16;100065.34;130665;1268;109005;-75
2022/02/25 08:04:30;;;;;;;143.50;63.40;;;;;;;5.32;62.47;100070.83;130623;1268;108806;-75
2022/02/25 08:07:36;;;;;;;5.00;2.00;;;;;;;5.31;61.23;100074.02;130638;1268;108713;-77
2022/02/25 08:10:41;;;;;;;2.90;1.30;;;;;;;5.18;60.89;100077.41;130628;1268;108955;-76
2022/02/25 08:13:47;;;;;;;3.30;1.20;;;;;;;5.08;60.97;100084.19;130594;1268;108880;-76
2022/02/25 08:16:52;;;;;;;6.10;2.40;;;;;;;5.16;61.54;100081.10;130587;1268;109091;-76
2022/02/25 08:19:58;;;;;;;3.40;1.20;;;;;;;5.30;61.04;100087.55;130600;1268;108684;-76
2022/02/25 08:23:04;;;;;;;86.40;39.00;;;;;;;5.30;60.74;100093.70;130608;1268;108938;-76
2022/02/25 08:26:09;;;;;;;12.70;5.20;;;;;;;5.38;60.37;100098.59;130600;1267;108815;-78
2022/02/25 08:29:15;;;;;;;11.20;4.30;;;;;;;5.38;59.90;100099.96;130623;1267;108961;-77
2022/02/25 08:32:20;;;;;;;50.00;22.20;;;;;;;5.38;60.45;100092.05;130590;1267;107752;-77
2022/02/25 08:35:26;;;;;;;8.30;4.10;;;;;;;5.40;59.65;100101.95;130575;1267;108650;-76
2022/02/25 08:38:31;;;;;;;3.20;1.40;;;;;;;5.32;59.17;100105.20;130665;1268;108889;-78
2022/02/25 08:41:37;;;;;;;6.00;2.70;;;;;;;5.22;59.02;100113.96;130582;1267;108812;-77
2022/02/25 08:44:42;;;;;;;8.90;3.90;;;;;;;5.22;59.98;100114.15;130651;1267;108964;-78
2022/02/25 08:47:49;;;;;;;3.10;1.30;;;;;;;5.29;59.64;100117.41;130597;1267;108682;-77
2022/02/25 08:50:55;;;;;;;40.30;14.00;;;;;;;5.46;59.85;100114.66;130532;1267;108965;-76
2022/02/25 08:54:00;;;;;;;5.80;3.00;;;;;;;5.69;59.57;100116.54;130624;1267;108759;-78
2022/02/25 08:57:07;;;;;;;12.90;6.30;;;;;;;5.84;59.74;100116.16;130597;1267;108871;-78
2022/02/25 09:00:16;;;;;;;65.40;34.40;;;;;;;5.98;59.58;100127.94;130591;1267;108711;-77
2022/02/25 09:03:22;;;;;;;58.00;24.70;;;;;;;6.07;59.34;100127.59;130458;1267;109088;-79
2022/02/25 09:06:28;;;;;;;17.00;7.00;;;;;;;6.12;57.99;100134.41;130451;1267;108767;-77
2022/02/25 09:09:33;;;;;;;16.60;6.90;;;;;;;6.21;56.60;100143.50;130393;1267;108730;-76
2022/02/25 09:12:41;;;;;;;8.70;3.10;;;;;;;6.29;57.98;100136.91;130391;1267;108854;-77
2022/02/25 09:15:46;;;;;;;20.30;9.50;;;;;;;6.33;56.20;100137.45;130467;1267;108868;-79
2022/02/25 09:18:52;;;;;;;35.90;16.60;;;;;;;6.20;57.19;100146.83;130532;1267;108915;-79
2022/02/25 09:21:57;;;;;;;97.40;48.30;;;;;;;6.17;57.65;100153.77;130681;1267;108889;-79
2022/02/25 09:25:03;;;;;;;29.60;14.10;;;;;;;6.14;57.73;100156.34;130350;1267;108888;-77
2022/02/25 09:28:09;;;;;;;123.30;46.00;;;;;;;6.20;57.91;100159.13;130455;1267;108958;-79
2022/02/25 09:31:15;;;;;;;90.80;45.80;;;;;;;6.37;56.44;100159.73;130480;1267;108888;-76
2022/02/25 09:34:20;;;;;;;161.90;71.50;;;;;;;6.36;56.48;100156.65;130424;1267;108842;-77
2022/02/25 09:37:26;;;;;;;144.60;84.40;;;;;;;6.35;57.20;100162.34;130446;1267;108755;-77
2022/02/25 09:40:32;;;;;;;12.70;5.50;;;;;;;6.39;57.18;100167.49;130555;1267;107426;-76
2022/02/25 09:43:39;;;;;;;6.30;3.30;;;;;;;6.35;56.44;100174.90;130429;1267;108716;-77
2022/02/25 09:46:45;;;;;;;15.70;4.60;;;;;;;6.26;57.03;100175.80;130415;1267;108846;-76
2022/02/25 09:49:50;;;;;;;5.50;2.50;;;;;;;6.28;56.47;100180.95;130482;1267;108961;-77
2022/02/25 09:52:56;;;;;;;26.50;14.70;;;;;;;6.25;57.22;100180.63;130552;1267;108835;-77
2022/02/25 09:56:02;;;;;;;10.40;4.70;;;;;;;6.37;57.06;100189.23;130463;1267;108691;-77
2022/02/25 09:59:07;;;;;;;9.40;4.60;;;;;;;6.42;56.51;100191.29;130475;1266;108728;-77
2022/02/25 10:02:14;;;;;;;7.10;2.50;;;;;;;6.33;56.04;100195.21;130431;1267;107727;-76
2022/02/25 10:05:22;;;;;;;5.90;2.30;;;;;;;6.22;56.17;100205.13;130491;1267;108882;-77
2022/02/25 10:08:27;;;;;;;6.70;2.60;;;;;;;6.09;56.35;100207.17;130539;1267;107055;-75
2022/02/25 10:12:04;;;;;;;8.00;4.00;;;;;;;6.12;56.60;100211.38;130510;1267;108709;-77
2022/02/25 10:15:10;;;;;;;5.50;3.30;;;;;;;6.19;57.02;100213.34;130504;1267;109255;-77
2022/02/25 10:18:17;;;;;;;12.20;6.40;;;;;;;6.28;56.52;100215.35;130473;1267;108657;-76
2022/02/25 10:21:24;;;;;;;7.80;3.00;;;;;;;6.37;56.83;100216.06;130507;1267;108682;-76
2022/02/25 10:24:43;;;;;;;25.20;12.70;;;;;;;6.50;56.69;100216.08;130520;1267;107800;-77
2022/02/25 10:27:51;;;;;;;10.80;3.60;;;;;;;6.69;56.60;100217.08;130402;1267;108902;-78
2022/02/25 10:31:19;;;;;;;8.30;3.60;;;;;;;6.85;56.39;100215.77;130445;1267;108730;-77
2022/02/25 10:34:27;;;;;;;13.10;6.70;;;;;;;6.91;55.94;100213.61;130560;1267;108773;-76
2022/02/25 10:37:32;;;;;;;17.70;10.10;;;;;;;7.05;56.68;100214.05;130535;1267;109045;-76
2022/02/25 10:40:40;;;;;;;20.90;6.70;;;;;;;7.20;56.30;100218.41;130548;1267;108761;-75
2022/02/25 10:43:46;;;;;;;81.00;39.00;;;;;;;7.28;56.20;100223.42;130572;1267;108731;-76
2022/02/25 10:47:28;;;;;;;86.10;54.80;;;;;;;7.33;56.00;100220.48;130178;1268;108644;-76
2022/02/25 10:50:45;;;;;;;17.40;8.30;;;;;;;7.46;55.85;100222.77;130534;1267;108756;-80
2022/02/25 10:53:54;;;;;;;8.60;4.00;;;;;;;7.49;54.80;100224.09;130609;1267;108840;-79
2022/02/25 10:57:11;;;;;;;10.40;3.50;;;;;;;7.51;55.52;100219.97;130611;1267;108701;-79
2022/02/25 11:00:19;;;;;;;5.90;2.50;;;;;;;7.65;55.48;100221.08;130475;1267;108976;-79
2022/02/25 11:03:24;;;;;;;4.20;2.90;;;;;;;7.71;55.14;100218.92;130574;1267;108869;-79
2022/02/25 11:06:30;;;;;;;48.00;32.50;;;;;;;7.69;55.09;100227.79;130585;1267;108801;-80
2022/02/25 11:09:37;;;;;;;27.70;17.40;;;;;;;7.75;55.22;100223.42;130537;1267;108800;-80
2022/02/25 11:12:45;;;;;;;53.30;30.90;;;;;;;7.82;55.10;100219.02;130470;1267;108706;-80
2022/02/25 11:15:51;;;;;;;33.50;17.70;;;;;;;7.80;54.61;100216.37;130450;1267;108459;-80
2022/02/25 11:18:57;;;;;;;103.50;56.90;;;;;;;7.73;53.93;100213.09;130588;1267;108824;-80
2022/02/25 11:22:05;;;;;;;202.40;99.20;;;;;;;7.73;54.67;100213.12;130507;1267;108842;-80
2022/02/25 11:25:15;;;;;;;106.10;52.80;;;;;;;7.85;53.91;100213.45;130554;1267;108717;-77
2022/02/25 11:28:25;;;;;;;56.20;27.30;;;;;;;7.85;53.18;100213.66;130443;1267;109079;-80
2022/02/25 11:31:35;;;;;;;21.90;9.60;;;;;;;7.80;53.82;100217.98;130563;1267;108666;-83
2022/02/25 11:34:41;;;;;;;33.40;15.40;;;;;;;7.63;52.60;100218.09;130493;1267;108640;-80
2022/02/25 11:37:49;;;;;;;17.90;8.70;;;;;;;7.51;52.16;100216.66;130413;1267;108023;-78
2022/02/25 11:40:58;;;;;;;91.70;46.40;;;;;;;7.49;52.94;100217.10;130429;1267;108718;-78
2022/02/25 11:44:15;;;;;;;113.40;57.20;;;;;;;7.69;52.84;100215.98;130433;1267;108728;-80
2022/02/25 11:47:39;;;;;;;57.80;29.40;;;;;;;7.88;52.41;100214.09;130399;1267;108640;-76
2022/02/25 11:50:49;;;;;;;88.00;43.30;;;;;;;8.07;52.59;100210.42;130283;1267;108704;-76
2022/02/25 11:54:23;;;;;;;174.90;78.90;;;;;;;8.01;51.94;100211.52;130452;1267;107168;-77
2022/02/25 11:57:29;;;;;;;299.90;117.50;;;;;;;7.75;52.58;100214.90;130498;1267;108658;-76
2022/02/25 12:00:35;;;;;;;86.90;46.40;;;;;;;7.64;52.98;100217.27;130501;1267;108659;-77
2022/02/25 12:04:06;;;;;;;19.40;10.80;;;;;;;7.57;53.12;100215.20;130530;1267;107535;-77
2022/02/25 12:07:12;;;;;;;11.70;6.60;;;;;;;7.45;52.02;100213.41;130509;1267;107448;-76
2022/02/25 12:10:21;;;;;;;8.50;5.90;;;;;;;7.46;52.73;100216.15;130825;1267;108793;-79
2022/02/25 12:13:29;;;;;;;6.90;4.30;;;;;;;7.63;52.11;100214.67;130385;1267;109681;-79
2022/02/25 12:16:40;;;;;;;62.20;34.90;;;;;;;7.81;51.89;100208.69;130474;1267;109620;-77
2022/02/25 12:20:06;;;;;;;54.80;31.80;;;;;;;8.03;52.00;100212.04;130526;1267;108902;-78
2022/02/25 12:23:15;;;;;;;112.00;57.50;;;;;;;8.14;52.14;100214.05;130360;1268;108956;-78
2022/02/25 12:26:33;;;;;;;105.00;53.60;;;;;;;8.10;50.72;100225.83;130450;1267;108592;-77
2022/02/25 12:29:38;;;;;;;17.00;8.60;;;;;;;8.03;51.10;100230.27;130483;1266;108782;-80
2022/02/25 12:32:47;;;;;;;41.90;20.10;;;;;;;8.12;50.52;100230.54;130468;1267;108932;-77
2022/02/25 12:35:56;;;;;;;54.00;26.70;;;;;;;8.09;51.16;100231.86;130325;1267;108768;-78
2022/02/25 12:39:05;;;;;;;17.00;7.50;;;;;;;8.07;50.91;100236.84;130554;1266;108835;-76
2022/02/25 12:42:12;;;;;;;48.40;24.50;;;;;;;8.10;51.09;100234.27;130436;1267;108754;-76
2022/02/25 12:45:28;;;;;;;42.30;22.30;;;;;;;8.28;51.00;100235.46;130475;1267;109683;-79
2022/02/25 12:48:33;;;;;;;227.00;83.30;;;;;;;8.44;50.95;100236.77;130443;1266;107766;-77
2022/02/25 12:51:39;;;;;;;27.10;12.10;;;;;;;8.41;50.57;100234.89;130587;1267;108650;-79
2022/02/25 12:54:45;;;;;;;12.50;6.00;;;;;;;8.38;50.69;100239.05;131529;1266;108850;-81
2022/02/25 12:57:55;;;;;;;6.90;3.10;;;;;;;8.41;49.28;100235.73;130330;1267;255615;-79
2022/02/25 13:01:01;;;;;;;22.30;11.70;;;;;;;8.32;48.68;100236.17;130478;1267;108667;-79
2022/02/25 13:04:11;;;;;;;10.20;4.00;;;;;;;8.16;49.50;100241.86;130477;1266;108712;-79
2022/02/25 13:07:21;;;;;;;14.10;8.00;;;;;;;8.08;47.53;100244.78;130480;1266;108961;-80
2022/02/25 13:10:31;;;;;;;4.70;2.60;;;;;;;7.91;46.59;100246.93;130474;1267;107733;-77
2022/02/25 13:13:36;;;;;;;7.10;3.40;;;;;;;7.50;46.64;100259.60;130454;1267;108690;-76
2022/02/25 13:16:55;;;;;;;198.90;101.50;;;;;;;7.12;48.36;100257.16;130414;1267;108614;-76
2022/02/25 13:20:03;;;;;;;39.60;18.60;;;;;;;6.97;50.21;100253.86;130430;1267;107049;-76
2022/02/25 13:23:11;;;;;;;95.10;45.50;;;;;;;6.93;49.95;100252.95;130498;1267;107868;-76
2022/02/25 13:26:22;;;;;;;39.70;17.70;;;;;;;6.88;50.27;100255.61;130435;1267;108673;-76
2022/02/25 13:29:29;;;;;;;90.90;44.40;;;;;;;6.82;49.75;100258.44;130407;1267;108675;-79
2022/02/25 13:32:34;;;;;;;32.60;16.60;;;;;;;6.73;49.37;100264.31;130414;1267;108915;-77
2022/02/25 13:35:43;;;;;;;25.70;12.30;;;;;;;6.72;50.51;100261.73;130495;1267;108819;-77
2022/02/25 13:38:54;;;;;;;18.70;9.70;;;;;;;6.71;49.50;100266.92;130416;1266;109078;-76
2022/02/25 13:42:00;;;;;;;16.30;8.30;;;;;;;6.61;50.10;100266.75;130381;1267;109011;-76
2022/02/25 13:45:07;;;;;;;102.00;50.30;;;;;;;6.54;50.42;100266.78;130417;1267;108703;-76
2022/02/25 13:55:11;;;;;;;79.30;47.50;;;;;;;6.62;49.82;100276.23;130388;1267;108796;-77
2022/02/25 13:58:18;;;;;;;15.40;9.90;;;;;;;6.67;49.90;100283.02;130438;1267;108887;-77
2022/02/25 14:01:24;;;;;;;10.20;5.40;;;;;;;6.68;50.27;100282.23;130415;1267;108983;-76
2022/02/25 14:04:29;;;;;;;18.50;11.90;;;;;;;6.63;49.88;100284.41;130413;1267;108722;-76
2022/02/25 14:07:37;;;;;;;35.20;23.80;;;;;;;6.61;50.04;100293.27;130418;1267;108858;-75
2022/02/25 14:10:43;;;;;;;27.50;18.00;;;;;;;6.56;50.18;100294.87;130384;1267;108849;-76
2022/02/25 14:13:48;;;;;;;11.90;8.00;;;;;;;6.52;50.52;100297.85;130123;1267;109005;-76
2022/02/25 14:16:54;;;;;;;8.20;5.60;;;;;;;6.46;50.21;100301.20;130378;1266;107241;-77
2022/02/25 14:20:04;;;;;;;9.10;5.90;;;;;;;6.43;50.47;100299.00;130442;1267;108803;-77
2022/02/25 14:23:11;;;;;;;7.00;4.20;;;;;;;6.46;50.98;100301.55;130443;1266;108899;-77
2022/02/25 14:26:28;;;;;;;10.10;6.50;;;;;;;6.50;50.93;100301.55;130410;1267;108780;-77